»·PEaware :: N16RD KSAN-KSNA

N16RD :: KSAN-KSNA

FLIGHT INFORMATION

Flight Status: Arrived
Operator: Privately registered:
United States
More flights under this callsign
Pilot: Brett B. (12105)
Aircraft: CESSNA 172 SKYHAWK
(C172)
More flights by this aircraft type
Origin: KSAN San Diego Intl-Lindbergh
United States
Destination: KSNA John Wayne-Orange Co
United States
More flights between these airports :: More routes between these airports
Route: +
File this flight plan on PilotEdge
Remarks:
Altitude:
(Current/Filed)
0ft
Speed:
(Current/Filed)
0kts
Departed: 18-Jan-18 08:17 PM
Arrived: 18-Jan-18 08:54 PM
Distance/Time
Traveled:
66nm/0:37
Distance/Time
To Go:
Arrived

Flight Plot

Page will automatically refresh every two minutes.


Map Options




Map Legend


Flown Route
Filed Route
Departure Airport
Arrival Airport
Navaid (VOR, NDB)
Fix

Horizontal Profiles

Position Reports

Time Latitude Longitude Heading Altitude Ground
Speed
18-Jan-18 20:09 32.732998 -117.180541 15 18ft 0kts
18-Jan-18 20:10 32.732998 -117.180541 15 18ft 0kts
18-Jan-18 20:11 32.732998 -117.180541 15 18ft 0kts
18-Jan-18 20:12 32.732998 -117.180541 15 18ft 0kts
18-Jan-18 20:13 32.732998 -117.180541 15 18ft 0kts
18-Jan-18 20:14 32.732998 -117.180541 15 18ft 0kts
18-Jan-18 20:15 32.732999 -117.180541 15 18ft 0kts
18-Jan-18 20:16 32.733003 -117.180540 10 18ft 0kts
18-Jan-18 20:17 32.732489 -117.180037 131 18ft 7kts
18-Jan-18 20:18 32.731914 -117.177778 106 18ft 16kts
18-Jan-18 20:19 32.730830 -117.175317 219 18ft 0kts
18-Jan-18 20:20 32.730830 -117.175317 219 18ft 0kts
18-Jan-18 20:21 32.730731 -117.175381 199 18ft 0kts
18-Jan-18 20:22 32.730692 -117.175402 203 18ft 4kts
18-Jan-18 20:23 32.733969 -117.191077 286 337ft 77kts
18-Jan-18 20:24 32.741420 -117.217898 322 1163ft 89kts
18-Jan-18 20:25 32.763175 -117.237468 323 1528ft 119kts
18-Jan-18 20:26 32.788502 -117.260039 323 1993ft 114kts
18-Jan-18 20:27 32.819038 -117.276525 348 2002ft 126kts
18-Jan-18 20:28 32.852801 -117.284189 357 2205ft 115kts
18-Jan-18 20:29 32.885248 -117.284350 359 2484ft 124kts
18-Jan-18 20:30 32.920580 -117.284092 359 2473ft 127kts
18-Jan-18 20:31 32.955879 -117.286242 344 2473ft 126kts
18-Jan-18 20:32 32.989510 -117.299779 336 2473ft 127kts
18-Jan-18 20:33 33.022461 -117.315052 336 2475ft 126kts
18-Jan-18 20:34 33.055138 -117.330347 336 2473ft 128kts
18-Jan-18 20:35 33.088030 -117.345743 337 2472ft 127kts
18-Jan-18 20:36 33.120988 -117.361897 339 2472ft 127kts
18-Jan-18 20:37 33.154043 -117.376738 336 2471ft 127kts
18-Jan-18 20:38 33.186887 -117.392217 335 2472ft 126kts
18-Jan-18 20:39 33.219710 -117.407639 335 2470ft 125kts
18-Jan-18 20:40 33.248782 -117.426509 322 2873ft 109kts
18-Jan-18 20:41 33.271344 -117.449947 316 3544ft 106kts
18-Jan-18 20:42 33.292689 -117.472597 314 4229ft 100kts
18-Jan-18 20:43 33.314951 -117.496425 313 4472ft 122kts
18-Jan-18 20:44 33.343546 -117.526935 316 3807ft 143kts
18-Jan-18 20:45 33.373759 -117.559063 318 3110ft 145kts
18-Jan-18 20:46 33.403611 -117.590876 321 2516ft 137kts
18-Jan-18 20:47 33.429084 -117.618004 320 2487ft 115kts
18-Jan-18 20:48 33.454041 -117.644597 321 2489ft 123kts
18-Jan-18 20:49 33.480137 -117.672411 313 2475ft 125kts
18-Jan-18 20:50 33.503480 -117.697423 316 2480ft 127kts
18-Jan-18 20:51 33.526894 -117.722429 315 2477ft 127kts
18-Jan-18 20:52 33.553369 -117.750768 315 2476ft 127kts
18-Jan-18 20:53 33.579500 -117.778762 313 2475ft 125kts
18-Jan-18 20:54 33.603320 -117.804335 315 2398ft 129kts
18-Jan-18 20:55 33.631714 -117.834758 317 1811ft 139kts
18-Jan-18 20:56 33.663844 -117.856202 16 1223ft 137kts
18-Jan-18 20:57 33.690500 -117.843243 23 696ft 88kts
18-Jan-18 20:58 33.701949 -117.848870 217 616ft 77kts
18-Jan-18 20:59 33.684486 -117.861576 204 200ft 58kts
18-Jan-18 21:00 33.673825 -117.867354 57 59ft 6kts
18-Jan-18 21:01 33.673859 -117.867285 69 59ft 0kts
18-Jan-18 21:02 33.673989 -117.866483 56 59ft 0kts

Navigation Log

Ident Type
Flight plan parsing failed, navigation log unavailable